India Forums Logo

Computers, Science, Technology

India Forums > Forum Index > Computers, Science, Technology
Place to talk about computers, the internet, and any science and tech related stuff.
...
<< | 6 | 7 | 8 | 9 | 10 | 11 | 12 | 13 | 14 | 15 | 16 | >>
TIDTopic SubjectStart DateLast Entry
4068830Infosys and its PR pitching Drama6/21/2014 11:55:38 AM6/21/2014 11:55:38 AM
4075191Camera help6/27/2014 3:38:23 AM6/27/2014 3:38:23 AM
4076302An Abney Associates Fraud Awareness Program6/28/2014 1:46:58 AM6/28/2014 1:46:58 AM
4078116An Abney Associates Fraud Awareness Program6/30/2014 3:05:43 AM6/30/2014 3:05:43 AM
4091282u want to buy mobile at lowest price?7/11/2014 12:45:08 AM7/11/2014 12:45:08 AM
4091445Cloud Computing Foundation (CCF) Online Training7/11/2014 4:01:58 AM7/11/2014 4:01:58 AM
4100505The Best DRM Remover"M4VGear DRM Media Converter7/18/2014 8:14:47 PM7/18/2014 8:14:47 PM
4100508How to Watch iTunes Extras on Apple TV?7/18/2014 8:22:31 PM7/18/2014 8:22:31 PM
4100596Offshore Data Entry Services In India7/18/2014 11:06:31 PM7/18/2014 11:06:31 PM
4105262Top android chat apps?7/23/2014 12:16:45 AM7/28/2014 3:33:44 AM
4114124Create events with this app7/30/2014 4:45:04 AM7/30/2014 4:45:04 AM
4121951How do you think without a language?8/5/2014 10:29:23 AM8/5/2014 10:29:23 AM
4138323Strictly No Comments Please!8/20/2014 4:03:34 PM9/9/2014 1:17:53 PM
4148975Lumia 620 WP 8.1 Update8/30/2014 9:52:38 PM8/30/2014 9:52:38 PM
4152128PST to NSF Conversion - 20% Discount Coupon9/3/2014 1:31:22 AM9/3/2014 1:31:22 AM
4162157Beskyttelse mot identitetstyveri Tjenester: verdt ha?9/13/2014 5:50:56 AM9/13/2014 5:50:56 AM
4162348Stalk Karke Kya Karoge! [Invites Only]9/13/2014 9:57:46 AM10/13/2014 8:26:12 AM
4165536relevant technologies used in cloud computing9/16/2014 11:37:11 PM9/16/2014 11:37:11 PM
4188184Advanced EDB to NSF Converter10/9/2014 3:32:42 AM10/9/2014 3:32:42 AM
4195938Birthday preparation thread for Mr Crazy...STRICTLY FOR INVITEES ONLY.10/16/2014 1:56:52 PM11/5/2014 12:15:46 PM
4202495Get your New Version Apple iphone 6 / samsung galaxy s510/23/2014 10:00:02 AM10/23/2014 10:00:02 AM
4221980Video to mov converter-Convert wmv/avi/flv/mp4/mkv to imovie free11/12/2014 1:42:33 AM11/12/2014 1:42:33 AM
4226995sound driver problem can anyone help plz......11/17/2014 12:38:58 AM11/18/2014 7:42:16 AM
4240252Team-RTR.{Task-3 Page-71}11/30/2014 5:45:32 PM12/26/2014 10:47:52 PM
42472902 whatsapp accounts in one phone12/7/2014 11:33:14 PM12/7/2014 11:33:14 PM
4253229Plz need help with Digital Cable12/13/2014 9:24:49 PM12/13/2014 9:24:49 PM
4267562Jalebis deserve a temple you know?12/29/2014 10:59:20 AM1/29/2015 12:36:12 PM
4279569Birthday preparation thread for Miss Sweet..STRICTLY FOR INVITEES ONLY1/10/2015 9:30:31 AM1/23/2015 11:41:19 AM
4297171Looking for Live Chat Plugin on eCommerce store created on Magento?1/30/2015 2:43:11 AM1/30/2015 2:43:11 AM
4310537Is thread mein NO ENTRY2/15/2015 11:31:44 AM3/8/2015 12:07:11 PM
4342149hi3/26/2015 10:33:41 AM4/19/2015 7:15:51 PM
4356219Teri Meri Khamoshiyan... Ssshhhh! [SIO]4/14/2015 1:09:56 AM5/14/2015 12:42:42 PM
4362585Alcatel OneTouch4/22/2015 12:10:03 PM4/26/2015 4:42:14 PM
4382294Is Clean Master stealing Data of Bollywood and Cricket Stars?5/20/2015 12:55:26 AM5/20/2015 12:55:26 AM
4385834CBSE 12th Result Live5/25/2015 1:18:08 AM5/25/2015 1:18:08 AM
4392688I am in love with electronics STRICTLY [IO]6/3/2015 1:12:27 AM6/3/2015 1:12:27 AM
4394478Lava Iris X1 Atom- affordable and good6/5/2015 4:01:22 AM6/25/2015 6:54:09 AM
4394647IPK. DO NOT POST.6/5/2015 8:12:30 AM6/5/2015 6:03:07 PM
4395199RBSE Rajasthan 10th Result 20156/6/2015 12:31:38 AM6/6/2015 12:31:38 AM
4397960Rajasthan Board RBSE 10th Results 20156/10/2015 12:33:23 AM6/10/2015 12:33:23 AM
4397971how to grow my Website Rank6/10/2015 12:41:26 AM7/28/2015 12:50:16 PM
4398035Tropical Ocean Marine - Services6/10/2015 2:48:13 AM6/10/2015 2:48:13 AM
4402414how to increase rank of my website6/15/2015 10:55:18 PM8/20/2015 3:48:24 AM
4405027No entry6/19/2015 5:55:46 AM9/30/2015 1:13:12 PM
4434135seo easy as back of your hand7/29/2015 1:15:44 PM7/29/2015 1:15:44 PM
4436568Any of you using Windows 10 so far?8/1/2015 9:51:54 PM8/21/2015 8:51:09 PM
4443532Avail Rs. 500 Flat Discounts on Combos, Electronics, Suits, Sarees8/11/2015 4:18:40 AM8/11/2015 4:18:40 AM
4444464Get Flat Rs. 400 off On Electronics, Combos and Sarees Category8/12/2015 5:28:06 AM8/12/2015 5:28:06 AM
4445297Get Flat Rs. 300 Off This Independence Day on Shopping From D2Hshop8/13/2015 7:02:40 AM8/13/2015 7:02:40 AM
4445380R U IN COMPUTER FIELD!!!8/13/2015 8:36:56 AM8/13/2015 8:36:56 AM
4447266Walk and use a mobile at the same time? No8/16/2015 3:17:38 AM8/16/2015 3:17:38 AM
4447575How To Convert 1 GB Or 2 GB Memory/SD Into 4GB8/16/2015 3:51:21 PM8/16/2015 3:51:21 PM
4447992Second hand products8/17/2015 7:59:16 AM8/22/2015 7:01:53 AM
4450913Learn More About Modified Containers8/21/2015 6:02:54 AM8/21/2015 6:02:54 AM
4458002web development india8/31/2015 4:20:37 AM8/31/2015 4:20:37 AM
4464685Rc Planes9/9/2015 3:24:11 AM9/9/2015 3:24:11 AM
4465163anyone with laptop knowledge?9/9/2015 2:47:19 PM9/11/2015 7:53:02 AM
4470829web designing company in Delhi|India9/18/2015 1:57:03 AM9/18/2015 1:57:03 AM
44733621080P HD and 4K UHD Video & DTS 5.1 Audio.9/22/2015 3:11:17 AM9/28/2015 11:34:08 PM
4474071How to recover deleted pictures from Sony Cybershot digital camera9/23/2015 2:14:19 AM9/23/2015 2:14:19 AM
4478130sdfsdfs9/28/2015 11:22:13 PM9/28/2015 11:22:13 PM
4478458No entry9/29/2015 8:36:12 AM9/29/2015 8:36:12 AM
4480258What is the full form of Wi-Fi10/1/2015 2:15:17 PM10/1/2015 2:15:17 PM
4481501urgent please help10/3/2015 3:19:01 PM10/11/2015 12:13:59 AM
4486579Wordpress10/10/2015 3:43:51 PM11/18/2015 1:11:37 AM
4486917what is Docker engine10/11/2015 7:42:05 AM11/14/2015 4:19:31 AM
4488921java tutorial10/13/2015 10:47:41 PM10/13/2015 10:47:41 PM
4490652pls reply10/16/2015 2:26:47 AM10/16/2015 2:26:47 AM
4499964For Mr Crazy -No entry10/28/2015 11:37:55 AM11/4/2015 9:02:03 AM
4501261Need Application to hide privacy10/30/2015 8:18:57 AM10/30/2015 8:18:57 AM
4512911What do you mean? [SIO]11/15/2015 7:59:33 AM12/5/2015 1:54:21 PM
4513544Do we really need an antivirus app for our mobiles?11/16/2015 5:21:24 AM11/17/2015 11:56:41 PM
4514736In need SEO Profession.11/17/2015 3:01:17 PM11/18/2015 1:29:35 AM
4516467which one is your favorite News app? and why?11/20/2015 12:47:55 AM11/20/2015 12:47:55 AM
4532144Survey for Media and Entertainment Industry12/12/2015 4:57:01 AM12/12/2015 4:57:01 AM
<< | 6 | 7 | 8 | 9 | 10 | 11 | 12 | 13 | 14 | 15 | 16 | >>